Time;durP1;ratioP1;P1;durP2;ratioP2;P2;SDS_P1;SDS_P2;PMS_P1;PMS_P2;Temp;Humidity;BMP_temperature;BMP_pressure;BME280_temperature;BME280_humidity;BME280_pressure;Samples;Min_cycle;Max_cycle;Signal;HPM_P1;HPM_P2
2022/07/19 00:01:12;;;;;;;9.78;5.20;;;;;;;11.68;79.85;95387.81;1763360;81;20962;-57
2022/07/19 00:03:40;;;;;;;10.08;4.90;;;;;;;11.64;79.76;95394.01;1763230;81;20990;-56
2022/07/19 00:06:08;;;;;;;5.28;4.33;;;;;;;11.58;80.08;95391.05;1763217;81;21134;-57
2022/07/19 00:08:37;;;;;;;6.83;4.25;;;;;;;11.54;80.31;95387.56;1763153;80;20982;-57
2022/07/19 00:11:06;;;;;;;8.65;4.72;;;;;;;11.47;80.46;95389.75;1763030;81;21010;-56
2022/07/19 00:13:34;;;;;;;7.47;5.85;;;;;;;11.42;80.84;95388.33;1763077;80;21026;-57
2022/07/19 00:16:02;;;;;;;12.13;5.70;;;;;;;11.42;80.76;95389.70;1763184;80;20989;-56
2022/07/19 00:18:30;;;;;;;12.07;5.30;;;;;;;11.35;80.67;95386.38;1763275;81;21255;-56
2022/07/19 00:20:59;;;;;;;8.15;5.40;;;;;;;11.29;80.67;95386.12;1746223;81;20982;-56
2022/07/19 00:23:28;;;;;;;10.63;5.35;;;;;;;11.26;80.78;95384.25;1763394;81;20974;-57
2022/07/19 00:25:57;;;;;;;10.45;5.83;;;;;;;11.28;80.91;95386.55;1745885;81;21025;-56
2022/07/19 00:28:25;;;;;;;9.78;5.87;;;;;;;11.28;81.39;95385.17;1746457;81;21516;-57
2022/07/19 00:30:53;;;;;;;9.15;5.95;;;;;;;11.22;81.67;95384.95;1763488;81;21315;-57
2022/07/19 00:33:22;;;;;;;10.65;5.62;;;;;;;11.16;81.89;95383.17;1763585;80;20989;-57
2022/07/19 00:35:50;;;;;;;8.80;5.05;;;;;;;11.12;81.94;95384.63;1763189;80;20962;-57
2022/07/19 00:38:18;;;;;;;8.40;5.53;;;;;;;11.11;81.98;95380.34;1762874;80;21033;-57
2022/07/19 00:40:46;;;;;;;7.25;4.65;;;;;;;11.10;82.08;95378.79;1742983;81;20993;-60
2022/07/19 00:43:14;;;;;;;9.53;5.33;;;;;;;11.07;82.16;95374.75;1730472;81;21135;-56
2022/07/19 00:45:44;;;;;;;10.10;5.72;;;;;;;11.02;81.99;95373.28;1755437;81;20993;-56
2022/07/19 00:48:12;;;;;;;7.67;5.78;;;;;;;10.95;81.97;95377.62;1755702;81;21459;-56
2022/07/19 00:50:40;;;;;;;10.40;5.58;;;;;;;10.89;82.18;95372.48;1755019;81;21079;-57
2022/07/19 00:53:08;;;;;;;5.00;4.50;;;;;;;10.88;82.23;95378.41;1755921;81;21168;-57
2022/07/19 00:55:38;;;;;;;8.63;4.80;;;;;;;10.85;82.12;95370.44;1755623;81;21757;-57
2022/07/19 00:58:06;;;;;;;9.65;5.30;;;;;;;10.87;82.32;95368.02;1748986;81;21481;-57
2022/07/19 01:00:35;;;;;;;14.90;5.40;;;;;;;10.88;82.12;95372.91;1772344;81;21022;-57
2022/07/19 01:03:03;;;;;;;7.72;5.67;;;;;;;10.86;81.96;95366.47;1748442;82;21103;-58
2022/07/19 01:05:32;;;;;;;6.62;4.95;;;;;;;10.81;82.08;95366.98;1759673;81;21007;-57
2022/07/19 01:08:00;;;;;;;8.13;4.90;;;;;;;10.81;82.46;95371.11;1748318;82;21238;-56
2022/07/19 01:10:28;;;;;;;4.78;4.35;;;;;;;10.81;82.48;95368.97;1759781;81;21432;-56
2022/07/19 01:12:56;;;;;;;7.80;5.03;;;;;;;10.76;82.59;95364.77;1748275;82;21002;-57
2022/07/19 01:15:25;;;;;;;9.73;5.05;;;;;;;10.76;82.79;95362.62;1772361;81;21038;-56
2022/07/19 01:17:53;;;;;;;12.53;5.95;;;;;;;10.72;82.57;95364.67;1748650;82;21449;-58
2022/07/19 01:20:22;;;;;;;10.05;5.22;;;;;;;10.69;82.49;95366.16;1772364;81;21151;-55
2022/07/19 01:22:50;;;;;;;9.15;5.85;;;;;;;10.63;82.64;95365.91;1748751;82;20930;-55
2022/07/19 01:25:19;;;;;;;8.93;5.40;;;;;;;10.57;82.69;95361.35;1772257;81;21038;-56
2022/07/19 01:27:49;;;;;;;8.88;5.47;;;;;;;10.50;82.92;95357.42;1725550;82;21075;-56
2022/07/19 01:30:20;;;;;;;7.20;5.53;;;;;;;10.43;83.30;95353.45;1759879;81;21471;-57
2022/07/19 01:32:49;;;;;;;11.10;5.90;;;;;;;10.39;83.61;95352.77;1748544;82;21841;-57
2022/07/19 01:35:17;;;;;;;6.75;5.87;;;;;;;10.40;83.90;95350.19;1772659;81;20987;-57
2022/07/19 01:37:44;;;;;;;8.33;5.30;;;;;;;10.36;83.87;95356.39;1713533;83;21038;-56
2022/07/19 01:40:14;;;;;;;12.20;5.45;;;;;;;10.33;84.02;95364.12;1730283;81;21469;-56
2022/07/19 01:42:42;;;;;;;7.83;5.00;;;;;;;10.29;84.23;95355.95;1743343;81;20964;-58
2022/07/19 01:45:11;;;;;;;9.00;5.70;;;;;;;10.28;84.24;95356.38;1743995;82;21130;-57
2022/07/19 01:47:40;;;;;;;7.58;5.70;;;;;;;10.24;84.06;95362.56;1743350;82;21460;-57
2022/07/19 01:50:10;;;;;;;9.50;5.58;;;;;;;10.20;84.17;95362.64;1743630;82;21004;-57
2022/07/19 01:52:38;;;;;;;10.53;6.60;;;;;;;10.21;84.71;95364.80;1743418;82;20984;-56
2022/07/19 01:55:08;;;;;;;8.03;6.35;;;;;;;10.22;84.73;95362.23;1743563;81;21566;-57
2022/07/19 01:57:36;;;;;;;11.30;6.90;;;;;;;10.21;84.96;95362.84;1742891;80;21253;-57
2022/07/19 02:00:07;;;;;;;11.75;6.95;;;;;;;10.22;85.19;95366.35;1715946;82;21048;-57
2022/07/19 02:02:36;;;;;;;11.00;5.97;;;;;;;10.22;85.11;95360.85;1741960;82;21051;-56
2022/07/19 02:05:06;;;;;;;10.85;5.92;;;;;;;10.19;84.75;95364.47;1742508;82;21064;-57
2022/07/19 02:07:35;;;;;;;8.80;5.33;;;;;;;10.15;84.54;95363.78;1742542;82;21086;-59
2022/07/19 02:10:04;;;;;;;6.87;5.65;;;;;;;10.13;84.27;95359.31;1715907;82;21092;-57
2022/07/19 02:12:32;;;;;;;8.38;5.17;;;;;;;10.11;84.03;95363.07;1742465;81;20941;-58
2022/07/19 02:15:00;;;;;;;5.80;5.03;;;;;;;10.07;84.00;95358.27;1742383;81;20999;-57
2022/07/19 02:17:28;;;;;;;9.65;6.33;;;;;;;10.04;84.03;95357.16;1715541;82;21003;-57
2022/07/19 02:19:56;;;;;;;10.93;6.50;;;;;;;10.05;84.14;95362.05;1742526;82;21016;-57
2022/07/19 02:22:26;;;;;;;7.80;5.40;;;;;;;10.07;84.16;95352.77;1742412;81;20984;-57
2022/07/19 02:24:55;;;;;;;10.63;6.03;;;;;;;10.05;84.21;95360.67;1715446;82;21040;-57
2022/07/19 02:27:23;;;;;;;9.75;5.95;;;;;;;10.04;84.37;95361.88;1715594;82;20968;-57
2022/07/19 02:29:51;;;;;;;8.53;5.42;;;;;;;10.02;84.28;95358.78;1742790;82;20972;-57
2022/07/19 02:32:20;;;;;;;10.35;5.65;;;;;;;10.03;84.44;95358.95;1742590;82;20952;-57
2022/07/19 02:34:47;;;;;;;8.23;5.70;;;;;;;10.04;84.23;95357.16;1742619;81;21479;-58
2022/07/19 02:37:16;;;;;;;7.45;5.47;;;;;;;10.11;84.30;95358.95;1766919;80;20981;-57
2022/07/19 02:39:44;;;;;;;13.88;8.45;;;;;;;10.15;83.93;95360.42;1773262;81;21032;-57
2022/07/19 02:42:12;;;;;;;10.35;5.72;;;;;;;10.16;84.14;95358.45;1773300;80;21003;-56
2022/07/19 02:44:42;;;;;;;7.87;6.20;;;;;;;10.18;84.17;95364.30;1773413;81;21400;-56
2022/07/19 02:47:10;;;;;;;10.38;6.40;;;;;;;10.15;83.90;95363.16;1745596;81;21293;-57
2022/07/19 02:49:38;;;;;;;8.95;5.55;;;;;;;10.13;83.90;95361.45;1773010;80;21008;-57
2022/07/19 02:52:07;;;;;;;8.15;4.70;;;;;;;10.15;84.04;95367.91;1772920;81;21102;-57
2022/07/19 02:54:34;;;;;;;8.55;5.85;;;;;;;10.15;83.61;95364.54;1773202;81;21043;-57
2022/07/19 02:57:02;;;;;;;6.55;5.30;;;;;;;10.15;83.48;95363.16;1773184;80;21408;-57
2022/07/19 02:59:30;;;;;;;10.28;4.72;;;;;;;10.16;83.61;95369.45;1745815;81;21286;-56
2022/07/19 03:02:00;;;;;;;8.35;5.33;;;;;;;10.15;83.47;95372.03;1772946;80;20941;-56
2022/07/19 03:04:28;;;;;;;7.62;4.75;;;;;;;10.10;83.67;95381.55;1773244;81;20969;-57
2022/07/19 03:06:57;;;;;;;6.40;4.03;;;;;;;10.08;83.72;95371.59;1773235;81;21494;-57
2022/07/19 03:09:25;;;;;;;6.78;4.78;;;;;;;10.07;83.84;95367.88;1773074;81;21032;-57
2022/07/19 03:11:54;;;;;;;6.00;4.97;;;;;;;10.04;83.80;95374.24;1773651;81;21113;-57
2022/07/19 03:14:22;;;;;;;9.68;5.40;;;;;;;10.02;84.08;95367.79;1773054;80;20941;-58
2022/07/19 03:16:51;;;;;;;33.05;8.25;;;;;;;10.05;84.14;95371.67;1773248;81;21009;-56
2022/07/19 03:19:20;;;;;;;9.45;5.55;;;;;;;10.03;84.09;95366.61;1773292;80;21003;-57
2022/07/19 03:21:49;;;;;;;11.75;5.65;;;;;;;10.05;84.33;95365.58;1773208;81;21012;-58
2022/07/19 03:24:17;;;;;;;8.48;5.78;;;;;;;10.07;84.09;95378.30;1773185;81;21216;-57
2022/07/19 03:26:46;;;;;;;8.85;5.65;;;;;;;10.09;84.02;95376.47;1773032;81;21051;-58
2022/07/19 03:29:15;;;;;;;15.63;5.60;;;;;;;10.13;84.18;95375.81;1773356;80;21091;-58
2022/07/19 03:31:43;;;;;;;12.25;6.28;;;;;;;10.19;84.15;95374.84;1773200;81;20997;-56
2022/07/19 03:34:11;;;;;;;12.55;5.65;;;;;;;10.23;83.72;95370.06;1773114;80;21005;-56
2022/07/19 03:36:39;;;;;;;12.82;6.50;;;;;;;10.23;83.61;95365.94;1773134;80;21278;-58
2022/07/19 03:39:08;;;;;;;12.90;5.50;;;;;;;10.26;83.56;95372.53;1720869;81;20997;-58
2022/07/19 03:41:36;;;;;;;8.45;5.90;;;;;;;10.28;83.57;95375.63;1745341;80;21051;-57
2022/07/19 03:44:05;;;;;;;10.45;6.10;;;;;;;10.30;83.55;95377.34;1720911;81;21027;-56
2022/07/19 03:46:32;;;;;;;14.90;6.42;;;;;;;10.30;83.39;95378.12;1773429;81;20936;-56
2022/07/19 03:49:01;;;;;;;11.38;5.58;;;;;;;10.32;83.64;95385.96;1745485;81;21334;-56
2022/07/19 03:51:29;;;;;;;9.50;5.17;;;;;;;10.35;83.47;95387.84;1772836;81;21420;-57
2022/07/19 03:53:58;;;;;;;10.03;5.72;;;;;;;10.41;83.47;95383.37;1773392;80;20997;-57
2022/07/19 03:56:26;;;;;;;8.73;4.83;;;;;;;10.52;83.61;95378.39;1771694;80;21036;-57
2022/07/19 03:58:54;;;;;;;8.43;5.08;;;;;;;10.60;83.44;95386.62;1756298;80;21037;-56
2022/07/19 04:01:24;;;;;;;11.75;5.33;;;;;;;10.61;83.27;95385.41;1771459;80;21148;-57
2022/07/19 04:03:52;;;;;;;9.10;4.95;;;;;;;10.63;83.20;95388.51;1757553;81;21024;-57
2022/07/19 04:06:21;;;;;;;8.18;5.00;;;;;;;10.63;83.21;95382.41;1747487;80;20954;-57
2022/07/19 04:08:50;;;;;;;12.78;4.85;;;;;;;10.68;83.23;95379.75;1788237;80;21428;-56
2022/07/19 04:11:19;;;;;;;11.97;5.55;;;;;;;10.78;83.18;95378.10;1762921;80;21040;-56
2022/07/19 04:13:47;;;;;;;16.02;5.85;;;;;;;10.87;83.15;95380.41;1777748;80;21247;-56
2022/07/19 04:16:15;;;;;;;6.65;4.90;;;;;;;10.97;83.00;95376.58;1738150;81;21023;-57
2022/07/19 04:18:44;;;;;;;13.70;5.22;;;;;;;11.10;82.77;95381.55;1754157;80;20955;-58
2022/07/19 04:21:12;;;;;;;8.15;5.03;;;;;;;11.21;82.42;95386.14;1763517;81;21472;-58
2022/07/19 04:23:40;;;;;;;6.30;5.17;;;;;;;11.31;81.98;95380.20;1777649;80;21006;-59
2022/07/19 04:26:08;;;;;;;16.10;6.05;;;;;;;11.40;81.87;95381.11;1738408;81;21704;-57
2022/07/19 04:28:36;;;;;;;11.22;4.85;;;;;;;11.49;81.70;95372.95;1777418;80;20994;-58
2022/07/19 04:31:05;;;;;;;9.55;5.30;;;;;;;11.60;81.56;95366.58;1763450;81;21524;-58
2022/07/19 04:33:34;;;;;;;11.33;5.28;;;;;;;11.71;80.97;95369.02;1777599;80;20978;-58
2022/07/19 04:36:02;;;;;;;5.33;4.10;;;;;;;11.80;80.62;95368.53;1750254;81;20986;-56
2022/07/19 04:38:30;;;;;;;10.88;4.95;;;;;;;11.92;80.12;95364.23;1715513;83;21187;-56
2022/07/19 04:40:58;;;;;;;9.00;4.83;;;;;;;12.05;79.67;95373.30;1715488;83;21537;-56
2022/07/19 04:43:26;;;;;;;11.03;4.80;;;;;;;12.25;79.31;95371.08;1715581;82;20998;-57
2022/07/19 04:45:55;;;;;;;11.90;4.60;;;;;;;12.57;78.85;95366.06;1689643;83;21041;-62
2022/07/19 04:48:25;;;;;;;5.53;4.60;;;;;;;12.94;78.03;95365.23;1703195;83;21040;-58
2022/07/19 04:50:53;;;;;;;5.62;5.00;;;;;;;13.30;76.92;95366.91;1718899;82;21258;-59
2022/07/19 04:53:21;;;;;;;26.12;6.30;;;;;;;13.61;75.55;95362.97;1692804;83;20981;-62
2022/07/19 04:55:49;;;;;;;8.78;4.60;;;;;;;13.69;74.44;95364.27;1718830;82;21497;-58
2022/07/19 04:58:18;;;;;;;7.90;4.53;;;;;;;13.73;73.89;95362.73;1719003;82;20989;-58
2022/07/19 05:00:46;;;;;;;7.62;4.28;;;;;;;13.77;73.84;95355.06;1718820;81;21046;-58
2022/07/19 05:03:15;;;;;;;9.05;4.67;;;;;;;13.86;73.46;95355.13;1718884;83;21224;-59
2022/07/19 05:05:43;;;;;;;10.32;5.97;;;;;;;13.90;73.40;95357.93;1692974;83;21402;-58
2022/07/19 05:08:11;;;;;;;5.55;4.35;;;;;;;13.96;72.92;95353.97;1692912;83;21426;-59
2022/07/19 05:10:39;;;;;;;7.17;4.10;;;;;;;13.98;72.59;95345.98;1718789;82;20959;-58
2022/07/19 05:13:07;;;;;;;5.10;3.72;;;;;;;14.02;71.96;95347.36;1718798;82;21053;-57
2022/07/19 05:15:36;;;;;;;7.72;4.50;;;;;;;14.05;71.43;95346.48;1723700;81;21151;-56
2022/07/19 05:18:05;;;;;;;7.30;4.40;;;;;;;14.08;71.31;95354.47;1723593;83;20986;-56
2022/07/19 05:20:35;;;;;;;6.90;3.85;;;;;;;14.14;71.17;95347.13;1745186;80;21070;-56
2022/07/19 05:23:02;;;;;;;8.28;4.00;;;;;;;14.23;70.85;95344.42;1729805;83;20998;-55
2022/07/19 05:25:31;;;;;;;6.67;4.00;;;;;;;14.33;70.71;95352.92;1692730;83;20962;-55
2022/07/19 05:27:59;;;;;;;6.97;4.17;;;;;;;14.41;70.13;95348.62;1719226;83;21132;-56
2022/07/19 05:30:28;;;;;;;11.22;4.72;;;;;;;14.46;69.48;95348.17;1717584;80;20991;-55
2022/07/19 05:32:57;;;;;;;15.80;5.58;;;;;;;14.48;69.42;95349.88;1777661;80;21486;-56
2022/07/19 05:35:25;;;;;;;11.38;3.98;;;;;;;14.50;69.31;95339.14;1777313;80;21545;-55
2022/07/19 05:37:52;;;;;;;4.50;3.65;;;;;;;14.60;69.27;95337.91;1755442;81;20954;-55
2022/07/19 05:40:21;;;;;;;9.20;4.03;;;;;;;14.71;69.21;95338.85;1755155;81;21183;-56
2022/07/19 05:42:49;;;;;;;9.50;4.75;;;;;;;14.80;68.73;95327.17;1746900;80;20970;-56
2022/07/19 05:45:18;;;;;;;10.15;4.00;;;;;;;14.89;68.58;95329.18;1757891;80;21050;-56
2022/07/19 05:47:45;;;;;;;8.80;5.20;;;;;;;14.99;68.38;95323.19;1753833;80;20994;-58
2022/07/19 05:50:12;;;;;;;10.63;4.42;;;;;;;15.08;67.96;95322.41;1753815;80;20958;-57
2022/07/19 05:52:40;;;;;;;11.33;5.67;;;;;;;15.16;67.68;95331.34;1745926;80;21133;-62
2022/07/19 05:55:08;;;;;;;12.88;5.37;;;;;;;15.23;67.16;95326.90;1747161;80;21011;-57
2022/07/19 05:57:35;;;;;;;9.38;4.20;;;;;;;15.30;66.85;95326.61;1752789;80;21037;-56
2022/07/19 06:00:04;;;;;;;12.75;5.65;;;;;;;15.36;66.48;95324.74;1735736;80;21206;-58
2022/07/19 06:02:33;;;;;;;17.30;5.37;;;;;;;15.44;66.29;95321.04;1739085;82;20970;-57
2022/07/19 06:05:01;;;;;;;21.90;4.85;;;;;;;15.53;66.07;95319.02;1726072;80;21565;-58
2022/07/19 06:07:28;;;;;;;14.30;3.98;;;;;;;15.63;65.96;95312.23;1739969;80;21110;-56
2022/07/19 06:09:57;;;;;;;6.62;3.85;;;;;;;15.75;65.41;95309.12;1714399;82;21120;-57
2022/07/19 06:12:27;;;;;;;10.38;3.75;;;;;;;15.89;64.90;95306.45;1713845;81;21507;-56
2022/07/19 06:14:55;;;;;;;5.75;3.62;;;;;;;15.99;64.88;95303.80;1702343;83;21132;-57
2022/07/19 06:17:25;;;;;;;8.45;3.87;;;;;;;16.10;64.50;95306.07;1732819;82;21000;-57
2022/07/19 06:19:53;;;;;;;8.43;5.00;;;;;;;16.19;64.13;95298.47;1737129;81;21550;-56
2022/07/19 06:22:22;;;;;;;5.80;3.50;;;;;;;16.29;64.12;95305.51;1747160;80;21111;-56
2022/07/19 06:24:49;;;;;;;4.85;3.33;;;;;;;16.39;63.38;95299.47;1724947;81;21056;-59
2022/07/19 06:27:19;;;;;;;10.15;3.35;;;;;;;16.52;63.17;95297.87;1745859;81;20945;-58
2022/07/19 06:29:46;;;;;;;6.17;3.83;;;;;;;16.66;63.09;95300.71;1732856;81;21109;-58
2022/07/19 06:32:13;;;;;;;6.22;3.98;;;;;;;16.85;63.09;95294.39;1731834;80;21014;-56
2022/07/19 06:34:43;;;;;;;7.87;4.05;;;;;;;17.04;62.48;95297.97;1749252;80;21072;-58
2022/07/19 06:37:11;;;;;;;5.65;3.27;;;;;;;17.22;61.91;95297.03;1737149;81;21088;-58
2022/07/19 06:39:39;;;;;;;6.92;3.40;;;;;;;17.38;61.31;95286.88;1739252;81;21117;-56
2022/07/19 06:42:08;;;;;;;7.80;3.72;;;;;;;17.49;60.65;95287.09;1731300;81;21684;-65
2022/07/19 06:44:36;;;;;;;7.05;4.97;;;;;;;17.61;60.42;95283.28;1742568;80;21535;-58
2022/07/19 06:47:04;;;;;;;5.58;3.40;;;;;;;17.72;59.78;95289.02;1737427;82;21177;-59
2022/07/19 06:49:32;;;;;;;6.58;3.70;;;;;;;17.81;59.70;95284.13;1712232;82;21037;-61
2022/07/19 06:52:01;;;;;;;7.47;3.72;;;;;;;17.92;59.50;95279.36;1751678;80;21104;-61
2022/07/19 06:54:29;;;;;;;6.15;3.58;;;;;;;18.04;59.29;95273.48;1705924;82;21125;-57
2022/07/19 06:56:57;;;;;;;9.60;3.52;;;;;;;18.19;58.75;95279.19;1738738;80;21044;-57
2022/07/19 06:59:24;;;;;;;11.10;3.10;;;;;;;18.32;58.45;95276.11;1734367;81;21027;-57
2022/07/19 07:01:52;;;;;;;5.70;2.98;;;;;;;18.45;58.30;95280.75;1747057;81;21116;-61
2022/07/19 07:04:21;;;;;;;10.10;3.40;;;;;;;18.60;57.74;95278.04;1722197;81;21061;-59
2022/07/19 07:06:50;;;;;;;7.72;3.35;;;;;;;18.72;57.46;95269.98;1746536;80;21153;-55
2022/07/19 07:09:20;;;;;;;6.22;3.12;;;;;;;18.79;56.53;95277.91;1755118;80;21426;-58
2022/07/19 07:11:48;;;;;;;9.38;3.30;;;;;;;18.83;56.28;95278.47;1762827;79;21058;-60
2022/07/19 07:14:17;;;;;;;9.88;3.22;;;;;;;18.88;56.91;95272.22;1743813;81;22598;-55
2022/07/19 07:16:48;;;;;;;9.08;3.25;;;;;;;19.00;56.75;95273.87;1742070;80;21086;-57
2022/07/19 07:19:15;;;;;;;8.03;3.30;;;;;;;19.18;56.37;95269.42;1717827;81;21976;-58
2022/07/19 07:21:44;;;;;;;5.90;2.80;;;;;;;19.37;55.43;95265.71;1739538;81;20997;-61
2022/07/19 07:24:13;;;;;;;5.60;2.90;;;;;;;19.57;55.78;95267.06;1739055;81;21122;-60
2022/07/19 07:26:41;;;;;;;7.33;2.77;;;;;;;19.76;55.43;95264.81;1743115;81;20988;-57
2022/07/19 07:29:09;;;;;;;3.20;2.75;;;;;;;19.93;55.48;95264.98;1731189;81;21106;-60
2022/07/19 07:31:37;;;;;;;5.15;2.98;;;;;;;20.11;55.80;95268.20;1708007;80;21835;-62
2022/07/19 07:34:05;;;;;;;7.47;3.35;;;;;;;20.30;55.62;95256.78;1744578;80;22335;-63
2022/07/19 07:36:33;;;;;;;10.30;2.95;;;;;;;20.49;54.63;95265.69;1734098;80;21104;-61
2022/07/19 07:39:01;;;;;;;6.80;3.45;;;;;;;20.66;54.01;95254.59;1736188;81;21500;-60
2022/07/19 07:41:29;;;;;;;7.60;4.08;;;;;;;20.77;53.13;95251.87;1720429;81;21064;-61
2022/07/19 07:43:57;;;;;;;7.55;3.20;;;;;;;20.84;52.46;95240.22;1704569;81;21165;-62
2022/07/19 07:46:25;;;;;;;6.33;3.22;;;;;;;20.96;52.38;95241.81;1739198;80;21236;-60
2022/07/19 07:48:53;;;;;;;3.83;2.80;;;;;;;21.11;52.06;95246.58;1742509;81;20973;-60
2022/07/19 07:51:21;;;;;;;6.42;2.70;;;;;;;21.31;51.53;95245.73;1744632;81;21613;-64
2022/07/19 07:53:51;;;;;;;3.02;2.17;;;;;;;21.52;50.48;95249.11;1742775;81;21512;-61
2022/07/19 07:56:19;;;;;;;4.92;2.20;;;;;;;21.73;49.66;95243.45;1754090;80;21557;-61
2022/07/19 07:58:48;;;;;;;4.58;2.17;;;;;;;21.92;49.59;95246.66;1751104;80;21006;-61
2022/07/19 08:01:16;;;;;;;6.10;2.27;;;;;;;22.07;49.01;95235.31;1738520;80;21527;-59
2022/07/19 08:03:44;;;;;;;5.92;2.15;;;;;;;22.14;48.19;95237.59;1735981;81;21065;-59
2022/07/19 08:06:12;;;;;;;4.35;2.50;;;;;;;22.23;48.79;95231.74;1724025;82;21489;-59
2022/07/19 08:08:41;;;;;;;5.75;2.25;;;;;;;22.38;48.55;95235.08;1754686;80;21416;-59
2022/07/19 08:11:09;;;;;;;6.30;2.52;;;;;;;22.55;48.86;95233.01;1724847;81;21270;-62
2022/07/19 08:13:37;;;;;;;4.87;2.30;;;;;;;22.69;47.60;95230.53;1739005;81;21055;-61
2022/07/19 08:16:06;;;;;;;3.47;2.33;;;;;;;22.82;47.22;95225.14;1730826;80;21364;-62
2022/07/19 08:18:33;;;;;;;4.85;2.30;;;;;;;22.95;47.85;95226.77;1731449;81;21446;-61
2022/07/19 08:21:02;;;;;;;9.40;2.75;;;;;;;23.06;47.69;95219.69;1731791;81;21084;-60
2022/07/19 08:23:30;;;;;;;5.92;2.60;;;;;;;23.15;47.24;95221.46;1719846;82;21584;-58
2022/07/19 08:25:57;;;;;;;7.58;2.45;;;;;;;23.22;46.49;95220.28;1743348;80;21190;-62
2022/07/19 08:28:25;;;;;;;4.50;2.00;;;;;;;23.31;47.11;95219.22;1705681;81;21022;-61
2022/07/19 08:30:52;;;;;;;2.85;2.00;;;;;;;23.43;46.84;95223.50;1749531;80;21406;-61
2022/07/19 08:33:22;;;;;;;6.28;2.22;;;;;;;23.55;47.89;95219.36;1741948;80;22230;-63
2022/07/19 08:35:49;;;;;;;3.08;2.12;;;;;;;23.65;45.68;95216.34;1736217;81;21637;-63
2022/07/19 08:38:18;;;;;;;4.90;2.10;;;;;;;23.72;45.22;95210.92;1729949;80;21071;-57
2022/07/19 08:40:46;;;;;;;4.50;2.30;;;;;;;23.80;45.87;95205.51;1747411;80;20978;-61
2022/07/19 08:43:14;;;;;;;10.60;2.42;;;;;;;23.88;45.39;95203.67;1738013;80;21020;-56
2022/07/19 08:45:43;;;;;;;6.17;2.47;;;;;;;23.96;43.95;95212.42;1730485;81;21127;-59
2022/07/19 08:48:10;;;;;;;5.33;2.17;;;;;;;24.01;43.73;95209.58;1733209;81;21054;-57
2022/07/19 08:50:39;;;;;;;8.93;3.90;;;;;;;24.07;44.32;95208.91;1731097;80;21465;-57
2022/07/19 08:53:07;;;;;;;5.28;2.90;;;;;;;24.17;44.18;95208.67;1767922;81;21075;-58
2022/07/19 08:55:35;;;;;;;5.15;2.40;;;;;;;24.25;42.59;95207.46;1763761;79;21120;-59
2022/07/19 08:58:03;;;;;;;4.25;2.10;;;;;;;24.31;42.33;95199.09;1751994;81;22475;-61
2022/07/19 09:00:32;;;;;;;3.52;1.80;;;;;;;24.46;42.32;95201.50;1755959;80;21070;-59
2022/07/19 09:03:02;;;;;;;3.35;1.95;;;;;;;24.52;41.93;95200.82;1759233;80;21039;-59
2022/07/19 09:05:30;;;;;;;9.13;2.80;;;;;;;24.60;41.73;95188.45;1723959;80;21765;-59
2022/07/19 09:08:12;;;;;;;7.12;2.15;;;;;;;24.66;41.14;95188.40;1724408;81;21001;-60
2022/07/19 09:11:14;;;;;;;2.92;1.80;;;;;;;24.74;41.46;95192.91;1753701;80;21306;-58
2022/07/19 09:13:16;;;;;;;4.87;2.08;;;;;;;24.83;40.57;95190.38;1714331;81;21476;-57
2022/07/19 09:15:51;;;;;;;4.28;1.95;;;;;;;24.92;41.41;95187.22;1722635;80;20990;-60
2022/07/19 09:18:33;;;;;;;2.98;1.50;;;;;;;25.04;42.13;95190.77;1722596;80;21006;-62
2022/07/19 09:21:05;;;;;;;2.70;1.75;;;;;;;25.20;39.92;95183.42;1740009;81;21092;-62
2022/07/19 09:23:35;;;;;;;4.47;2.27;;;;;;;25.35;39.27;95186.55;1744338;81;21300;-60
2022/07/19 09:26:05;;;;;;;4.05;1.80;;;;;;;25.45;40.11;95183.48;1732500;81;21052;-59
2022/07/19 09:28:36;;;;;;;6.47;2.08;;;;;;;25.53;38.99;95182.97;1725552;81;21600;-60
2022/07/19 09:31:04;;;;;;;3.58;1.90;;;;;;;25.54;38.47;95183.08;1746276;80;21024;-58
2022/07/19 09:33:33;;;;;;;2.90;1.67;;;;;;;25.52;38.52;95177.22;1738536;81;21075;-60
2022/07/19 09:36:04;;;;;;;5.78;2.40;;;;;;;25.54;38.65;95174.63;1745111;80;21220;-58
2022/07/19 09:38:36;;;;;;;3.55;1.75;;;;;;;25.56;38.11;95174.85;1707603;81;21480;-62
2022/07/19 09:41:15;;;;;;;4.42;2.05;;;;;;;25.60;38.09;95175.30;1747581;81;21040;-61
2022/07/19 09:44:00;;;;;;;4.58;1.77;;;;;;;25.66;37.83;95167.54;1737477;81;20974;-57
2022/07/19 09:46:33;;;;;;;3.30;2.10;;;;;;;25.79;37.70;95173.22;1728027;81;21031;-61
2022/07/19 09:49:14;;;;;;;1.75;1.40;;;;;;;25.91;38.48;95164.73;1700587;82;21129;-59
2022/07/19 09:51:45;;;;;;;5.37;2.02;;;;;;;26.02;39.68;95171.72;1730625;81;21048;-58
2022/07/19 09:54:15;;;;;;;4.62;1.67;;;;;;;25.98;39.60;95172.66;1730446;81;20992;-57
2022/07/19 09:56:44;;;;;;;7.87;2.05;;;;;;;25.86;40.12;95174.05;1698763;81;21053;-61
2022/07/19 09:59:13;;;;;;;4.00;2.08;;;;;;;25.77;40.38;95171.58;1738407;81;21137;-60
2022/07/19 10:01:42;;;;;;;4.50;2.67;;;;;;;25.82;41.95;95167.27;1725648;81;21809;-62
2022/07/19 10:04:16;;;;;;;3.33;2.00;;;;;;;25.97;41.09;95165.50;1733964;80;21015;-60
2022/07/19 10:06:44;;;;;;;3.55;1.92;;;;;;;26.00;40.63;95169.31;1738040;80;21024;-65
2022/07/19 10:09:13;;;;;;;3.42;2.00;;;;;;;25.95;42.03;95170.92;1741557;81;22127;-60
2022/07/19 10:11:40;;;;;;;3.85;2.02;;;;;;;25.93;40.87;95163.54;1716274;81;20962;-59
2022/07/19 10:14:09;;;;;;;4.10;2.00;;;;;;;25.89;41.22;95168.73;1737749;80;21164;-59
2022/07/19 10:17:03;;;;;;;4.12;2.12;;;;;;;25.87;40.44;95167.11;1719109;81;21042;-59
2022/07/19 10:19:42;;;;;;;3.10;1.82;;;;;;;25.93;41.30;95163.54;1715859;81;21021;-59
2022/07/19 10:22:15;;;;;;;3.92;1.87;;;;;;;26.19;43.99;95166.56;1711123;81;21096;-58
2022/07/19 10:24:56;;;;;;;5.72;2.00;;;;;;;26.59;43.17;95166.75;1748535;81;21091;-60
2022/07/19 10:27:31;;;;;;;2.70;1.80;;;;;;;26.94;42.00;95166.33;1755656;80;21329;-62
2022/07/19 10:30:14;;;;;;;3.90;1.95;;;;;;;27.27;40.50;95158.60;1755959;80;21063;-60
2022/07/19 10:32:46;;;;;;;4.67;2.00;;;;;;;27.60;40.41;95161.33;1741783;81;21093;-64
2022/07/19 10:35:29;;;;;;;;;;;;;;;27.91;38.86;95149.81;1717823;81;21014;-62
2022/07/19 10:38:06;;;;;;;7.08;2.17;;;;;;;28.25;38.91;95151.25;1744558;81;20208;-68
2022/07/19 10:40:47;;;;;;;3.22;1.70;;;;;;;28.71;37.46;95154.56;1736454;81;21155;-58
2022/07/19 10:43:20;;;;;;;2.10;1.87;;;;;;;28.76;37.06;95154.32;1750014;81;21106;-59
2022/07/19 10:46:02;;;;;;;7.25;2.02;;;;;;;28.64;35.76;95149.62;1751000;80;21148;-56
2022/07/19 10:48:40;;;;;;;3.17;2.22;;;;;;;28.30;35.59;95152.42;1731378;81;21022;-56
2022/07/19 10:51:30;;;;;;;6.12;2.20;;;;;;;27.92;36.25;95156.98;1706531;81;22243;-58
2022/07/19 10:54:02;;;;;;;4.37;1.92;;;;;;;27.57;37.56;95151.88;1712107;83;21859;-63
2022/07/19 10:56:34;;;;;;;9.43;2.47;;;;;;;27.33;37.74;95152.16;1750801;80;21038;-57
2022/07/19 10:59:05;;;;;;;4.80;2.30;;;;;;;27.23;37.81;95148.27;1753243;81;21017;-55
2022/07/19 11:01:34;;;;;;;4.20;1.80;;;;;;;27.23;38.20;95148.27;1742990;80;21491;-54
2022/07/19 11:04:33;;;;;;;8.10;2.02;;;;;;;27.18;38.27;95141.34;1733137;82;21542;-56
2022/07/19 11:07:18;;;;;;;7.80;2.02;;;;;;;27.24;37.42;95145.54;1758246;80;21220;-61
2022/07/19 11:09:52;;;;;;;2.77;1.85;;;;;;;27.46;37.13;95142.88;1744042;81;21103;-60
2022/07/19 11:12:25;;;;;;;4.10;2.40;;;;;;;27.86;36.98;95149.30;1736909;81;20988;-57
2022/07/19 11:14:52;;;;;;;4.90;2.27;;;;;;;28.18;37.60;95146.97;1749268;80;21091;-58
2022/07/19 11:17:20;;;;;;;4.67;2.20;;;;;;;29.01;38.09;95148.36;1750062;81;21525;-56
2022/07/19 11:20:17;;;;;;;5.85;3.20;;;;;;;29.53;36.39;95147.87;1746007;81;21919;-59
2022/07/19 11:22:48;;;;;;;4.15;2.35;;;;;;;30.12;33.85;95143.77;1756785;80;22233;-59
2022/07/19 11:25:17;;;;;;;2.90;1.72;;;;;;;30.56;33.48;95140.86;1767412;79;21067;-60
2022/07/19 11:27:47;;;;;;;3.58;2.33;;;;;;;30.49;33.62;95146.54;1735716;80;21051;-62
2022/07/19 11:30:15;;;;;;;3.17;2.10;;;;;;;30.39;33.31;95144.93;1746411;80;21509;-58
2022/07/19 11:32:42;;;;;;;6.00;2.20;;;;;;;30.69;32.47;95137.08;1757924;79;21915;-57
2022/07/19 11:35:12;;;;;;;5.00;2.33;;;;;;;31.04;31.73;95138.23;1748026;80;21073;-55
2022/07/19 11:37:41;;;;;;;5.22;1.82;;;;;;;31.43;30.78;95136.13;1750848;80;21068;-59
2022/07/19 11:40:10;;;;;;;3.55;1.92;;;;;;;31.81;30.18;95142.42;1723016;81;21011;-59
2022/07/19 11:42:44;;;;;;;3.05;2.00;;;;;;;32.05;29.12;95138.20;1767139;80;21036;-62